Time;durP1;ratioP1;P1;durP2;ratioP2;P2;SDS_P1;SDS_P2;PMS_P1;PMS_P2;Temp;Humidity;BMP_temperature;BMP_pressure;BME280_temperature;BME280_humidity;BME280_pressure;Samples;Min_cycle;Max_cycle;Signal;HPM_P1;HPM_P2
2021/09/27 00:01:02;;;;;;;13.40;12.00;;;;;;;15.68;88.06;100413.87;1757660;80;21044;-86
2021/09/27 00:03:29;;;;;;;14.40;11.10;;;;;;;15.66;88.09;100415.78;1748107;81;21002;-86
2021/09/27 00:05:56;;;;;;;12.85;11.50;;;;;;;15.64;88.15;100416.44;1767913;80;20983;-86
2021/09/27 00:08:22;;;;;;;14.53;12.23;;;;;;;15.61;88.30;100420.70;1775253;80;20955;-86
2021/09/27 00:11:05;;;;;;;14.30;11.78;;;;;;;15.60;88.29;100421.70;1776117;80;21488;-86
2021/09/27 00:13:37;;;;;;;;;;;;;;;15.59;88.41;100411.52;1778614;80;21014;-86
2021/09/27 00:16:06;;;;;;;16.30;11.95;;;;;;;15.56;88.36;100409.64;1775907;80;21042;-85
2021/09/27 00:18:33;;;;;;;13.48;11.15;;;;;;;15.53;88.53;100409.45;1772509;80;20970;-86
2021/09/27 00:21:04;;;;;;;14.70;13.10;;;;;;;15.52;88.56;100409.58;1747953;81;21013;-86
2021/09/27 00:23:32;;;;;;;16.07;12.50;;;;;;;15.49;88.71;100404.88;1775748;80;20962;-86
2021/09/27 00:25:59;;;;;;;14.90;12.58;;;;;;;15.48;88.59;100409.02;1775917;80;21057;-86
2021/09/27 00:28:26;;;;;;;14.33;12.50;;;;;;;15.47;88.83;100407.36;1775517;80;20963;-86
2021/09/27 00:30:53;;;;;;;14.63;13.03;;;;;;;15.45;88.82;100407.98;1775640;80;21026;-86
2021/09/27 00:33:22;;;;;;;14.70;13.03;;;;;;;15.44;88.91;100408.47;1775627;80;20994;-86
2021/09/27 00:35:48;;;;;;;14.50;12.98;;;;;;;15.42;89.00;100402.94;1776079;80;20995;-86
2021/09/27 00:38:16;;;;;;;16.42;14.18;;;;;;;15.42;89.09;100405.59;1776037;80;21017;-86
2021/09/27 00:40:47;;;;;;;18.85;14.33;;;;;;;15.40;89.19;100409.73;1766422;81;21005;-86
2021/09/27 00:43:14;;;;;;;18.60;13.08;;;;;;;15.39;89.24;100402.72;1745731;81;21500;-86
2021/09/27 00:45:45;;;;;;;18.80;13.35;;;;;;;15.38;89.19;100406.37;1745664;81;21358;-86
2021/09/27 00:48:12;;;;;;;15.38;12.50;;;;;;;15.37;89.28;100400.71;1745398;81;20979;-86
2021/09/27 00:50:43;;;;;;;14.43;12.82;;;;;;;15.37;89.29;100395.89;1768544;81;20990;-86
2021/09/27 00:53:17;;;;;;;14.93;12.82;;;;;;;15.34;89.24;100404.98;1752944;81;20993;-86
2021/09/27 00:55:44;;;;;;;16.73;13.95;;;;;;;15.34;89.36;100410.79;1775944;80;20994;-86
2021/09/27 00:58:11;;;;;;;14.40;12.90;;;;;;;15.32;89.41;100410.91;1775926;80;21488;-86
2021/09/27 01:00:37;;;;;;;15.65;13.08;;;;;;;15.31;89.60;100405.25;1771376;80;21034;-86
2021/09/27 01:03:03;;;;;;;16.62;14.33;;;;;;;15.31;89.63;100408.41;1773792;81;20963;-86
2021/09/27 01:05:29;;;;;;;15.28;12.93;;;;;;;15.30;89.72;100405.38;1768466;80;21002;-86
2021/09/27 01:08:18;;;;;;;16.20;13.78;;;;;;;15.30;89.89;100404.05;1754241;80;21037;-85
2021/09/27 01:11:07;;;;;;;14.73;13.13;;;;;;;15.29;89.78;100403.71;1775818;80;21014;-87
2021/09/27 01:13:47;;;;;;;20.43;13.98;;;;;;;15.27;89.80;100402.53;1746493;81;20999;-87
2021/09/27 01:16:52;;;;;;;17.27;13.10;;;;;;;15.25;89.84;100393.84;1754382;81;21006;-87
2021/09/27 01:20:02;;;;;;;15.08;13.48;;;;;;;15.25;89.93;100395.17;1702766;84;20953;-86
2021/09/27 01:23:05;;;;;;;15.98;13.72;;;;;;;15.22;89.93;100398.95;1771149;80;20967;-87
2021/09/27 01:26:00;;;;;;;17.48;13.75;;;;;;;15.20;89.97;100393.41;1703671;84;21049;-85
2021/09/27 01:28:54;;;;;;;16.30;14.10;;;;;;;15.18;89.98;100387.41;1748049;81;20998;-85
2021/09/27 01:32:05;;;;;;;15.90;14.20;;;;;;;15.15;89.88;100388.53;1775889;81;21006;-86
2021/09/27 01:34:46;;;;;;;17.85;14.90;;;;;;;15.12;89.90;100386.14;1776158;81;21485;-86
2021/09/27 01:37:38;;;;;;;16.82;14.38;;;;;;;15.10;89.99;100384.59;1763665;80;20985;-86
2021/09/27 01:40:32;;;;;;;18.02;14.20;;;;;;;15.07;90.04;100385.74;1776094;81;21021;-86
2021/09/27 01:43:19;;;;;;;17.42;14.55;;;;;;;15.05;90.20;100384.20;1757556;81;20970;-85
2021/09/27 01:46:07;;;;;;;16.00;14.30;;;;;;;15.04;90.20;100386.48;1775549;80;21441;-85
2021/09/27 01:48:59;;;;;;;17.32;14.58;;;;;;;15.00;90.16;100388.58;1773565;80;21022;-85
2021/09/27 01:51:44;;;;;;;18.70;14.78;;;;;;;14.97;90.20;100387.06;1745403;81;21043;-87
2021/09/27 01:54:38;;;;;;;18.02;15.30;;;;;;;14.95;90.23;100381.52;1767433;81;21030;-87
2021/09/27 01:57:49;;;;;;;15.55;13.85;;;;;;;14.92;90.10;100389.77;1752988;80;21019;-85
2021/09/27 02:00:20;;;;;;;18.37;15.78;;;;;;;14.89;90.28;100387.39;1771454;81;21033;-86
2021/09/27 02:03:06;;;;;;;16.25;14.47;;;;;;;14.85;90.26;100388.64;1748917;81;20923;-86
2021/09/27 02:05:59;;;;;;;17.25;14.55;;;;;;;14.83;90.44;100388.77;1762492;80;20960;-86
2021/09/27 02:08:50;;;;;;;18.35;14.18;;;;;;;14.81;90.50;100389.41;1747754;81;20975;-87
2021/09/27 02:11:36;;;;;;;17.98;14.38;;;;;;;14.78;90.43;100389.19;1745908;81;21049;-87
2021/09/27 02:14:25;;;;;;;19.00;15.83;;;;;;;14.76;90.52;100390.30;1745705;81;20982;-86
2021/09/27 02:17:05;;;;;;;18.80;15.25;;;;;;;14.72;90.51;100396.86;1753754;81;21002;-86
2021/09/27 02:19:49;;;;;;;20.88;15.85;;;;;;;14.70;90.55;100389.51;1745718;81;21041;-86
2021/09/27 02:22:26;;;;;;;18.12;15.28;;;;;;;14.69;90.62;100397.13;1750095;81;21493;-86
2021/09/27 02:25:09;;;;;;;21.30;17.10;;;;;;;14.67;90.68;100393.77;1775511;80;20942;-86
2021/09/27 02:27:36;;;;;;;19.70;15.65;;;;;;;14.65;90.64;100386.44;1752001;81;21496;-86
2021/09/27 02:30:07;;;;;;;23.55;16.65;;;;;;;14.62;90.90;100390.20;1759881;81;21002;-86
2021/09/27 02:32:41;;;;;;;20.95;17.25;;;;;;;14.59;90.90;100381.66;1709915;82;21465;-86
2021/09/27 02:35:28;;;;;;;20.97;17.65;;;;;;;14.58;91.00;100387.93;1754861;80;21516;-86
2021/09/27 02:38:14;;;;;;;19.05;16.25;;;;;;;14.56;91.17;100385.92;1752872;80;20966;-86
2021/09/27 02:40:48;;;;;;;19.90;17.30;;;;;;;14.54;91.20;100380.73;1753032;80;21014;-86
2021/09/27 02:43:14;;;;;;;22.45;17.48;;;;;;;14.53;91.38;100373.75;1755660;80;20988;-86
2021/09/27 02:45:43;;;;;;;21.12;17.92;;;;;;;14.50;91.49;100370.00;1742632;80;21475;-86
2021/09/27 02:48:20;;;;;;;21.42;18.60;;;;;;;14.49;91.49;100370.49;1774169;80;21016;-86
2021/09/27 02:50:51;;;;;;;21.02;17.87;;;;;;;14.49;91.67;100366.52;1783832;80;20990;-86
2021/09/27 02:53:20;;;;;;;22.80;17.87;;;;;;;14.48;91.67;100363.52;1780329;80;21001;-86
2021/09/27 02:56:25;;;;;;;20.02;17.07;;;;;;;14.47;91.65;100368.94;1782126;80;20993;-86
2021/09/27 02:59:09;;;;;;;25.35;18.95;;;;;;;14.45;91.74;100365.60;1755171;80;21045;-85
2021/09/27 03:01:49;;;;;;;22.05;17.15;;;;;;;14.44;91.81;100367.39;1761056;80;21005;-85
2021/09/27 03:04:43;;;;;;;22.42;18.77;;;;;;;14.42;91.92;100358.73;1784432;80;21052;-85
2021/09/27 03:07:44;;;;;;;21.60;18.17;;;;;;;14.42;91.83;100356.58;1776565;80;20990;-86
2021/09/27 03:10:54;;;;;;;22.73;18.25;;;;;;;14.40;91.84;100355.37;1769612;80;21000;-85
2021/09/27 03:13:46;;;;;;;24.32;18.95;;;;;;;14.38;91.87;100358.66;1781412;80;21034;-85
2021/09/27 03:16:44;;;;;;;22.87;18.70;;;;;;;14.37;91.94;100358.78;1752973;81;21491;-84
2021/09/27 03:19:19;;;;;;;22.52;18.67;;;;;;;14.32;91.94;100355.22;1779102;81;21323;-85
2021/09/27 03:22:13;;;;;;;21.62;18.77;;;;;;;14.33;91.94;100356.05;1769655;80;20997;-85
2021/09/27 03:25:12;;;;;;;23.83;18.30;;;;;;;14.31;91.96;100365.00;1754683;80;21026;-85
2021/09/27 03:27:52;;;;;;;22.00;19.05;;;;;;;14.29;91.98;100360.80;1757123;80;20969;-86
2021/09/27 03:30:38;;;;;;;22.70;18.25;;;;;;;14.27;92.01;100357.42;1753981;80;20982;-86
2021/09/27 03:33:21;;;;;;;22.82;18.27;;;;;;;14.24;92.09;100361.67;1753659;80;21002;-84
2021/09/27 03:36:08;;;;;;;22.05;19.62;;;;;;;14.23;92.22;100364.81;1760661;80;21492;-84
2021/09/27 03:38:48;;;;;;;23.80;20.02;;;;;;;14.22;92.33;100368.94;1742245;80;20974;-86
2021/09/27 03:41:34;;;;;;;27.58;21.00;;;;;;;14.22;92.33;100360.98;1756387;81;21720;-86
2021/09/27 03:44:27;;;;;;;26.30;21.15;;;;;;;14.21;92.41;100353.97;1762447;80;21464;-84
2021/09/27 03:47:24;;;;;;;24.98;20.25;;;;;;;14.18;92.43;100348.93;1783384;80;21492;-85
2021/09/27 03:50:01;;;;;;;25.55;19.98;;;;;;;13.92;92.63;100301.66;1783422;80;21001;-84
2021/09/27 03:53:02;;;;;;;28.05;22.02;;;;;;;14.16;92.77;100346.42;1769220;80;21057;-85
2021/09/27 03:55:57;;;;;;;25.88;21.40;;;;;;;14.15;92.95;100343.89;1764908;80;21678;-84
2021/09/27 03:58:29;;;;;;;25.23;22.50;;;;;;;14.14;93.01;100344.38;1753876;80;21324;-84
2021/09/27 04:01:09;;;;;;;26.10;22.48;;;;;;;14.14;93.04;100338.23;1767062;80;21496;-84
2021/09/27 04:04:15;;;;;;;25.23;21.60;;;;;;;14.14;93.19;100341.73;1784390;80;21010;-84
2021/09/27 04:07:03;;;;;;;29.15;22.80;;;;;;;14.14;93.36;100338.23;1776202;80;21024;-84
2021/09/27 04:10:13;;;;;;;27.62;21.42;;;;;;;14.13;93.43;100340.55;1783026;80;20978;-85
2021/09/27 04:12:53;;;;;;;30.75;22.67;;;;;;;14.13;93.55;100339.22;1764703;80;21038;-85
2021/09/27 04:15:47;;;;;;;29.10;22.20;;;;;;;14.13;93.74;100345.86;1783668;80;21484;-85
2021/09/27 04:18:27;;;;;;;26.82;21.57;;;;;;;14.13;93.66;100343.20;1784433;80;21002;-85
2021/09/27 04:21:10;;;;;;;24.30;20.82;;;;;;;14.14;93.78;100338.23;1775648;80;20986;-85
2021/09/27 04:24:03;;;;;;;28.05;23.42;;;;;;;14.15;93.86;100342.10;1762373;80;21048;-86
2021/09/27 04:26:52;;;;;;;26.95;22.02;;;;;;;14.15;93.96;100339.45;1769349;80;21025;-85
2021/09/27 04:30:07;;;;;;;25.08;21.55;;;;;;;14.16;94.02;100342.94;1771668;80;20951;-85
2021/09/27 04:32:56;;;;;;;27.55;22.22;;;;;;;14.16;93.95;100337.62;1763356;80;20998;-86
2021/09/27 04:36:00;;;;;;;32.78;23.05;;;;;;;14.18;94.06;100339.64;1753684;81;21017;-85
2021/09/27 04:38:27;;;;;;;27.27;21.73;;;;;;;14.17;94.09;100339.30;1753530;81;21021;-86
2021/09/27 04:41:20;;;;;;;30.10;23.75;;;;;;;14.18;94.27;100339.18;1756366;80;20966;-85
2021/09/27 04:44:13;;;;;;;29.05;22.87;;;;;;;14.17;94.23;100341.46;1776632;80;21502;-86
2021/09/27 04:46:51;;;;;;;;;;;;;;;14.19;94.31;100344.00;1756066;82;20994;-85
2021/09/27 04:49:56;;;;;;;27.48;21.52;;;;;;;14.20;94.31;100351.81;1753205;81;20407;-86
2021/09/27 04:52:57;;;;;;;29.40;24.00;;;;;;;14.19;94.45;100351.47;1753304;81;21057;-86
2021/09/27 04:56:04;;;;;;;28.42;23.12;;;;;;;14.19;94.64;100354.12;1753596;81;21072;-86
2021/09/27 04:58:59;;;;;;;35.23;24.00;;;;;;;14.20;94.72;100354.95;1753472;81;21064;-84
2021/09/27 05:01:42;;;;;;;28.70;23.73;;;;;;;14.19;94.77;100359.92;1753544;81;21010;-85
2021/09/27 05:04:35;;;;;;;25.77;21.80;;;;;;;14.21;94.75;100348.66;1753704;82;21445;-85
2021/09/27 05:07:14;;;;;;;;;;;;;;;14.23;94.84;100348.05;1756044;81;21479;-85
2021/09/27 05:09:54;;;;;;;29.02;22.87;;;;;;;14.25;94.90;100346.13;1749788;82;20131;-85
2021/09/27 05:12:43;;;;;;;29.02;24.10;;;;;;;14.25;94.89;100350.94;1752894;81;21064;-85
2021/09/27 05:15:43;;;;;;;29.60;22.52;;;;;;;14.27;94.90;100348.13;1753506;81;21022;-85
2021/09/27 05:18:23;;;;;;;30.02;23.05;;;;;;;14.27;94.97;100350.30;1753316;81;21070;-85
2021/09/27 05:21:01;;;;;;;31.07;23.07;;;;;;;14.28;95.07;100359.09;1752757;81;21551;-85
2021/09/27 05:23:48;;;;;;;27.73;21.52;;;;;;;14.30;95.12;100359.31;1753404;81;20990;-85
2021/09/27 05:26:44;;;;;;;31.68;22.87;;;;;;;14.31;95.12;100362.34;1753517;81;21057;-85
2021/09/27 05:29:47;;;;;;;27.67;22.48;;;;;;;14.35;95.20;100359.42;1762147;80;21500;-85
2021/09/27 05:32:27;;;;;;;27.17;20.77;;;;;;;14.37;95.21;100361.44;1766630;80;20994;-85
2021/09/27 05:35:14;;;;;;;25.37;22.67;;;;;;;14.37;95.33;100363.60;1784716;80;21480;-85
2021/09/27 05:38:08;;;;;;;27.95;22.82;;;;;;;14.40;95.40;100362.50;1784428;80;21016;-84
2021/09/27 05:40:48;;;;;;;30.82;25.08;;;;;;;14.43;95.52;100364.88;1751091;80;21050;-84
2021/09/27 05:43:25;;;;;;;31.82;24.05;;;;;;;14.45;95.58;100363.78;1784473;80;20978;-84
2021/09/27 05:46:44;;;;;;;31.70;25.08;;;;;;;14.47;95.71;100361.81;1784485;80;21013;-85
2021/09/27 05:49:16;;;;;;;29.32;22.73;;;;;;;14.49;95.79;100367.00;1784437;80;21056;-85
2021/09/27 05:51:48;;;;;;;29.67;23.77;;;;;;;14.52;96.00;100368.92;1782911;80;21551;-85
2021/09/27 05:54:29;;;;;;;31.12;24.52;;;;;;;14.54;96.11;100367.45;1784436;80;21465;-84
2021/09/27 05:57:10;;;;;;;31.82;24.32;;;;;;;14.58;96.24;100368.02;1783973;80;21516;-85
2021/09/27 06:00:18;;;;;;;29.90;23.62;;;;;;;14.61;96.32;100373.05;1784426;80;20955;-85
2021/09/27 06:03:16;;;;;;;26.95;22.20;;;;;;;14.64;96.48;100375.44;1784360;80;20998;-85
2021/09/27 06:06:15;;;;;;;30.65;22.35;;;;;;;14.67;96.46;100381.32;1784515;80;21064;-85
2021/09/27 06:08:56;;;;;;;26.97;23.42;;;;;;;14.72;96.55;100382.25;1784093;80;21563;-85
2021/09/27 06:11:37;;;;;;;26.87;23.70;;;;;;;14.74;96.60;100382.94;1784455;80;21496;-86
2021/09/27 06:14:04;;;;;;;31.62;24.60;;;;;;;14.78;96.71;100387.02;1784405;80;21089;-85
2021/09/27 06:17:06;;;;;;;27.73;21.33;;;;;;;14.79;96.64;100384.71;1784544;80;21009;-85
2021/09/27 06:20:04;;;;;;;26.90;23.20;;;;;;;14.80;96.61;100377.08;1784683;80;21025;-85
2021/09/27 06:22:42;;;;;;;25.65;21.85;;;;;;;14.83;96.50;100379.47;1761556;80;21002;-86
2021/09/27 06:25:26;;;;;;;26.42;22.02;;;;;;;14.85;96.54;100384.16;1784541;80;21046;-85
2021/09/27 06:28:00;;;;;;;27.05;22.25;;;;;;;14.88;96.57;100378.58;1784593;80;21014;-85
2021/09/27 06:30:51;;;;;;;31.25;22.13;;;;;;;14.90;96.52;100384.58;1784568;80;20962;-86
2021/09/27 06:33:47;;;;;;;28.55;23.15;;;;;;;14.91;96.40;100381.45;1762551;80;21027;-86
2021/09/27 06:36:24;;;;;;;29.95;23.52;;;;;;;14.92;96.40;100387.11;1784562;80;20994;-86
2021/09/27 06:38:57;;;;;;;28.87;22.87;;;;;;;14.92;96.44;100383.96;1784873;80;21005;-86
2021/09/27 06:41:27;;;;;;;29.45;24.47;;;;;;;14.95;96.45;100385.02;1784588;80;21555;-86
2021/09/27 06:43:54;;;;;;;28.25;22.10;;;;;;;14.97;96.51;100384.41;1784501;80;21514;-86
2021/09/27 06:46:20;;;;;;;28.62;21.97;;;;;;;14.98;96.53;100382.09;1784650;80;21054;-86
2021/09/27 06:48:50;;;;;;;27.82;22.25;;;;;;;15.03;96.54;100379.49;1784638;80;20998;-86
2021/09/27 06:51:17;;;;;;;28.87;23.50;;;;;;;15.04;96.53;100379.37;1784656;80;21045;-86
2021/09/27 06:53:44;;;;;;;25.43;21.00;;;;;;;15.08;96.66;100378.60;1784531;80;20990;-86
2021/09/27 06:56:11;;;;;;;26.95;22.62;;;;;;;15.11;96.63;100379.66;1784532;80;21592;-86
2021/09/27 06:58:37;;;;;;;28.35;21.77;;;;;;;15.13;96.73;100375.02;1784746;80;21464;-86
2021/09/27 07:01:03;;;;;;;25.17;20.90;;;;;;;15.15;96.56;100376.56;1784737;80;20931;-86
2021/09/27 07:03:30;;;;;;;28.42;21.82;;;;;;;15.17;96.61;100375.95;1784493;80;21505;-86
2021/09/27 07:05:56;;;;;;;25.77;22.80;;;;;;;15.20;96.63;100378.80;1784545;80;20998;-86
2021/09/27 07:08:23;;;;;;;29.02;21.82;;;;;;;15.21;96.60;100374.69;1784515;80;21026;-86
2021/09/27 07:10:51;;;;;;;25.52;21.05;;;;;;;15.23;96.47;100378.05;1784714;80;20986;-86
2021/09/27 07:13:18;;;;;;;29.95;21.68;;;;;;;15.26;96.52;100382.23;1784498;80;21116;-86
2021/09/27 07:15:45;;;;;;;26.30;21.10;;;;;;;15.29;96.43;100375.30;1784518;80;21006;-86
2021/09/27 07:18:11;;;;;;;24.75;21.10;;;;;;;15.29;96.39;100373.97;1784415;80;21010;-86
2021/09/27 07:20:38;;;;;;;26.17;21.15;;;;;;;15.31;96.39;100376.02;1784656;80;21017;-86
2021/09/27 07:23:04;;;;;;;25.75;21.65;;;;;;;15.32;96.41;100372.36;1762766;80;20994;-86
2021/09/27 07:25:34;;;;;;;35.92;21.85;;;;;;;15.35;96.35;100373.91;1784572;80;21512;-86
2021/09/27 07:28:00;;;;;;;24.92;20.27;;;;;;;15.37;96.32;100372.80;1788683;80;21056;-86
2021/09/27 07:30:28;;;;;;;27.58;20.97;;;;;;;15.41;96.64;100364.05;1784697;80;21044;-86
2021/09/27 07:32:54;;;;;;;29.52;22.05;;;;;;;15.46;96.66;100365.77;1784407;80;21017;-86
2021/09/27 07:35:24;;;;;;;27.25;21.07;;;;;;;15.52;96.92;100371.02;1784590;80;20970;-86
2021/09/27 07:37:50;;;;;;;27.10;20.72;;;;;;;15.58;96.87;100357.16;1784430;80;21014;-87
2021/09/27 07:40:21;;;;;;;27.65;21.45;;;;;;;15.65;97.09;100355.59;1784583;80;21504;-86
2021/09/27 07:42:49;;;;;;;23.83;20.37;;;;;;;15.73;96.92;100358.89;1784638;80;21061;-86
2021/09/27 07:45:18;;;;;;;25.52;20.82;;;;;;;15.80;97.01;100360.86;1784536;80;20986;-87
2021/09/27 07:47:44;;;;;;;24.35;20.62;;;;;;;15.88;96.75;100356.13;1784443;80;21009;-87
2021/09/27 07:50:11;;;;;;;24.65;19.67;;;;;;;15.93;96.63;100350.73;1784508;80;21671;-87
2021/09/27 07:52:38;;;;;;;26.37;20.60;;;;;;;16.01;96.92;100353.16;1784457;80;21500;-87
2021/09/27 07:55:06;;;;;;;24.63;20.00;;;;;;;16.10;97.02;100348.29;1784546;80;20978;-87
2021/09/27 07:57:33;;;;;;;23.80;19.98;;;;;;;16.20;97.23;100357.56;1784613;80;20990;-86
2021/09/27 07:59:59;;;;;;;26.57;20.65;;;;;;;16.28;96.64;100348.34;1784622;80;21025;-86
2021/09/27 08:02:30;;;;;;;25.02;21.35;;;;;;;16.35;96.58;100352.08;1784485;80;20985;-87
2021/09/27 08:04:52;;;;;;;23.83;20.60;;;;;;;16.41;96.71;100349.66;1784012;80;21062;-87
2021/09/27 08:07:19;;;;;;;23.62;18.90;;;;;;;16.50;96.40;100351.11;1784531;80;21480;-86
2021/09/27 08:09:45;;;;;;;22.15;19.42;;;;;;;16.58;96.27;100355.18;1784601;80;21084;-88
2021/09/27 08:12:11;;;;;;;23.55;19.05;;;;;;;16.67;96.79;100353.45;1784338;80;21112;-87
2021/09/27 08:14:38;;;;;;;24.12;18.42;;;;;;;16.78;96.52;100350.59;1784812;80;21504;-87
2021/09/27 08:17:04;;;;;;;20.80;18.57;;;;;;;16.87;96.21;100353.69;1784017;80;21104;-87
2021/09/27 08:19:31;;;;;;;23.40;19.50;;;;;;;16.95;96.09;100360.95;1784712;80;21009;-87
2021/09/27 08:21:57;;;;;;;22.73;18.67;;;;;;;17.02;95.88;100358.84;1784327;80;21497;-87
2021/09/27 08:24:24;;;;;;;26.40;18.80;;;;;;;17.09;95.32;100359.91;1784857;80;21029;-87
2021/09/27 08:26:50;;;;;;;23.60;18.50;;;;;;;17.16;95.02;100357.47;1784370;80;21013;-87
2021/09/27 08:29:17;;;;;;;22.65;18.42;;;;;;;17.22;94.82;100354.20;1784537;80;21006;-88
2021/09/27 08:31:43;;;;;;;22.22;18.02;;;;;;;17.29;94.87;100349.91;1784108;80;21030;-87
2021/09/27 08:34:09;;;;;;;19.82;17.20;;;;;;;17.35;94.64;100338.63;1784648;80;21489;-88
2021/09/27 08:36:35;;;;;;;23.65;20.02;;;;;;;17.42;95.07;100339.35;1784534;80;21018;-87
2021/09/27 08:39:04;;;;;;;22.85;18.55;;;;;;;17.49;94.80;100344.41;1784595;80;21515;-87
2021/09/27 08:41:58;;;;;;;19.77;16.80;;;;;;;17.54;94.64;100346.95;1784443;80;21033;-87
2021/09/27 08:44:51;;;;;;;20.32;17.02;;;;;;;17.58;94.28;100345.64;1778326;80;21016;-87
2021/09/27 08:47:37;;;;;;;20.08;16.42;;;;;;;17.62;93.98;100351.50;1784163;80;21068;-87
2021/09/27 08:50:14;;;;;;;21.50;18.37;;;;;;;17.67;93.99;100350.55;1784599;80;21495;-86
2021/09/27 08:52:41;;;;;;;22.77;17.92;;;;;;;17.72;93.85;100341.55;1770900;80;21073;-86
2021/09/27 08:55:11;;;;;;;26.48;18.20;;;;;;;17.80;94.44;100340.31;1784473;80;21658;-86
2021/09/27 08:58:20;;;;;;;25.95;19.00;;;;;;;17.90;93.91;100340.68;1784543;80;21491;-86
2021/09/27 09:01:00;;;;;;;22.02;16.77;;;;;;;17.96;93.93;100339.55;1784461;80;21039;-86
2021/09/27 09:03:40;;;;;;;19.48;16.67;;;;;;;18.03;93.54;100344.62;1783539;80;21564;-87
2021/09/27 09:06:14;;;;;;;19.25;16.65;;;;;;;18.12;93.46;100343.31;1761727;80;21014;-86
2021/09/27 09:08:54;;;;;;;22.00;17.50;;;;;;;18.16;93.24;100342.81;1784671;80;21461;-86
2021/09/27 09:11:38;;;;;;;20.27;17.90;;;;;;;18.22;93.25;100340.84;1784088;80;21479;-86
2021/09/27 09:14:49;;;;;;;21.70;18.12;;;;;;;18.39;92.74;100344.91;1783938;80;21535;-86
2021/09/27 09:17:35;;;;;;;21.33;16.65;;;;;;;18.39;92.74;100344.91;1784335;80;20985;-86
2021/09/27 09:20:10;;;;;;;18.65;15.70;;;;;;;18.46;92.88;100345.47;1784567;80;21005;-88
2021/09/27 09:22:40;;;;;;;22.07;16.80;;;;;;;18.40;92.25;100322.56;1783813;80;20970;-87
2021/09/27 09:25:11;;;;;;;18.10;14.63;;;;;;;18.60;92.57;100342.66;1784432;80;21017;-88
2021/09/27 09:27:38;;;;;;;20.37;15.43;;;;;;;18.68;92.58;100345.34;1784703;80;21532;-87
2021/09/27 09:30:08;;;;;;;18.17;16.27;;;;;;;18.77;92.22;100333.38;1784637;80;20990;-88
2021/09/27 09:32:36;;;;;;;22.32;16.93;;;;;;;18.84;91.48;100337.89;1784394;80;21017;-88
2021/09/27 09:35:29;;;;;;;19.23;16.65;;;;;;;18.89;91.18;100338.75;1784446;80;21555;-88
2021/09/27 09:38:08;;;;;;;19.05;15.90;;;;;;;18.92;91.28;100331.23;1784705;80;21033;-88
2021/09/27 09:40:52;;;;;;;18.48;16.42;;;;;;;18.99;90.72;100336.76;1784484;80;21445;-88
2021/09/27 09:43:31;;;;;;;22.55;16.62;;;;;;;19.04;90.16;100339.75;1784337;80;20995;-88
2021/09/27 09:46:15;;;;;;;19.32;16.57;;;;;;;19.10;90.70;100340.43;1784461;80;21014;-87
2021/09/27 09:48:58;;;;;;;17.32;15.48;;;;;;;19.18;90.54;100339.59;1783536;80;21001;-87
2021/09/27 09:51:44;;;;;;;18.82;16.85;;;;;;;19.28;90.57;100340.77;1773330;80;21516;-88
2021/09/27 09:54:24;;;;;;;20.27;16.30;;;;;;;19.36;90.35;100336.26;1784645;80;20959;-88
2021/09/27 09:57:15;;;;;;;16.52;14.83;;;;;;;19.46;89.51;100340.09;1784339;80;21472;-87
2021/09/27 09:59:59;;;;;;;19.00;16.87;;;;;;;19.50;89.28;100336.08;1785049;80;21088;-87
2021/09/27 10:02:27;;;;;;;20.70;16.30;;;;;;;19.55;88.73;100339.09;1783230;80;20982;-87
2021/09/27 10:05:08;;;;;;;18.70;15.75;;;;;;;19.61;89.27;100335.74;1784627;80;20950;-87
2021/09/27 10:07:52;;;;;;;19.80;15.60;;;;;;;19.64;88.80;100328.74;1784014;80;21053;-88
2021/09/27 10:10:35;;;;;;;16.95;14.87;;;;;;;19.71;89.18;100335.59;1784412;80;21002;-88
2021/09/27 10:13:06;;;;;;;19.17;17.23;;;;;;;19.79;88.73;100334.73;1784324;80;21477;-87
2021/09/27 10:15:41;;;;;;;28.80;21.97;;;;;;;19.82;88.52;100329.86;1762533;80;21065;-87
2021/09/27 10:18:29;;;;;;;21.82;17.52;;;;;;;19.82;88.21;100325.02;1784066;80;21057;-88
2021/09/27 10:21:25;;;;;;;22.17;17.73;;;;;;;19.87;87.93;100326.66;1784427;80;20951;-87
2021/09/27 10:23:56;;;;;;;24.82;19.85;;;;;;;19.91;87.68;100315.96;1784586;80;21010;-87
2021/09/27 10:26:36;;;;;;;20.97;17.80;;;;;;;19.95;87.86;100323.97;1778185;80;20983;-88
2021/09/27 10:29:10;;;;;;;19.80;17.82;;;;;;;20.00;87.58;100318.92;1776562;80;21034;-87
2021/09/27 10:31:40;;;;;;;19.75;17.30;;;;;;;20.06;87.78;100326.78;1776564;80;21033;-87
2021/09/27 10:34:14;;;;;;;18.60;16.70;;;;;;;20.09;86.84;100324.58;1776123;80;20983;-87
2021/09/27 10:36:46;;;;;;;19.55;17.50;;;;;;;20.09;86.76;100323.25;1782867;80;21453;-87
2021/09/27 10:39:15;;;;;;;20.82;17.40;;;;;;;20.12;87.09;100314.03;1783136;80;21018;-87
2021/09/27 10:41:50;;;;;;;22.10;19.48;;;;;;;20.16;87.10;100311.33;1784390;80;21886;-87
2021/09/27 10:44:22;;;;;;;21.40;17.85;;;;;;;20.21;86.55;100310.83;1784596;80;20978;-88
2021/09/27 10:46:52;;;;;;;20.80;18.52;;;;;;;20.22;86.22;100316.51;1784322;80;21093;-87
2021/09/27 10:49:32;;;;;;;19.52;17.52;;;;;;;20.27;86.14;100311.45;1784512;80;20983;-87
2021/09/27 10:52:22;;;;;;;21.27;17.52;;;;;;;20.29;85.94;100313.45;1784396;80;21014;-88
2021/09/27 10:55:19;;;;;;;20.72;17.45;;;;;;;20.30;85.45;100313.30;1784692;80;20990;-87
2021/09/27 10:57:59;;;;;;;23.47;17.35;;;;;;;20.36;86.18;100306.38;1783796;80;21072;-88
2021/09/27 11:00:48;;;;;;;20.30;18.12;;;;;;;20.43;85.87;100306.52;1784562;80;21069;-88
2021/09/27 11:03:35;;;;;;;19.42;17.40;;;;;;;20.49;85.60;100312.00;1784416;80;21013;-89
2021/09/27 11:06:23;;;;;;;18.40;16.48;;;;;;;20.53;85.53;100310.70;1784485;80;20978;-88
2021/09/27 11:09:18;;;;;;;27.52;24.60;;;;;;;20.59;85.27;100311.81;1784444;80;20995;-88
2021/09/27 11:12:06;;;;;;;19.92;17.85;;;;;;;20.66;85.13;100317.30;1783935;80;21037;-89
2021/09/27 11:14:52;;;;;;;21.00;18.90;;;;;;;20.68;84.64;100313.44;1784664;80;21504;-88
2021/09/27 11:17:32;;;;;;;22.75;20.35;;;;;;;20.73;84.51;100312.41;1784363;80;20997;-87
2021/09/27 11:20:41;;;;;;;23.12;19.25;;;;;;;20.78;84.69;100310.53;1784677;80;21002;-89
2021/09/27 11:23:31;;;;;;;19.07;16.97;;;;;;;20.83;83.93;100307.66;1784422;80;21046;-87
2021/09/27 11:26:18;;;;;;;19.02;17.12;;;;;;;20.92;84.64;100313.77;1780440;80;21053;-88
2021/09/27 11:28:58;;;;;;;21.48;19.10;;;;;;;20.96;83.53;100318.27;1784561;80;21441;-87
2021/09/27 11:31:35;;;;;;;20.62;18.42;;;;;;;20.97;84.02;100315.42;1730236;80;21010;-88
2021/09/27 11:34:29;;;;;;;20.45;18.25;;;;;;;20.99;83.44;100309.38;1784406;80;20998;-88
2021/09/27 11:37:18;;;;;;;18.90;16.90;;;;;;;21.03;83.60;100305.83;1784366;80;21025;-87
2021/09/27 11:39:56;;;;;;;20.90;18.67;;;;;;;21.06;83.40;100303.62;1759165;80;21512;-89
2021/09/27 11:42:27;;;;;;;19.52;17.42;;;;;;;21.09;83.13;100310.45;1773239;80;20962;-88
2021/09/27 11:45:13;;;;;;;23.07;18.70;;;;;;;21.13;82.76;100314.98;1784352;80;21018;-88
2021/09/27 11:47:47;;;;;;;19.37;17.35;;;;;;;21.14;83.04;100317.47;1784295;80;21006;-88
2021/09/27 11:50:33;;;;;;;19.77;17.67;;;;;;;21.18;83.40;100310.72;1783989;80;21477;-88
2021/09/27 11:53:22;;;;;;;20.77;18.55;;;;;;;21.21;82.78;100314.38;1762927;80;21031;-89
2021/09/27 11:56:02;;;;;;;20.10;18.07;;;;;;;21.23;82.40;100315.56;1781822;80;21014;-88
2021/09/27 11:58:55;;;;;;;20.50;18.37;;;;;;;21.28;82.15;100313.15;1784501;80;21495;-88
2021/09/27 12:01:39;;;;;;;22.82;20.08;;;;;;;21.27;82.08;100306.13;1784410;80;21480;-89
2021/09/27 12:04:19;;;;;;;21.73;19.52;;;;;;;21.28;81.76;100309.95;1777821;80;21498;-88
2021/09/27 12:06:51;;;;;;;21.37;19.05;;;;;;;21.30;81.37;100303.08;1783555;80;21018;-88
2021/09/27 12:09:37;;;;;;;24.03;19.17;;;;;;;21.27;81.56;100294.87;1783847;80;21001;-89